Time;durP1;ratioP1;P1;durP2;ratioP2;P2;SDS_P1;SDS_P2;PMS_P1;PMS_P2;Temp;Humidity;BMP_temperature;BMP_pressure;BME280_temperature;BME280_humidity;BME280_pressure;Samples;Min_cycle;Max_cycle;Signal;HPM_P1;HPM_P2
2022/09/21 00:01:08;;;;;;;8.07;5.40;;;;;;;9.23;92.36;98883.88;4220938;28;20642;-85
2022/09/21 00:03:11;;;;;;;8.63;5.65;;;;;;;9.17;91.28;98878.13;4203359;28;20993;-85
2022/09/21 00:05:15;;;;;;;9.40;4.53;;;;;;;9.09;90.28;98875.91;4200673;28;20245;-85
2022/09/21 00:07:18;;;;;;;7.78;5.00;;;;;;;9.04;90.25;98882.28;4217902;28;20719;-85
2022/09/21 00:09:21;;;;;;;7.45;4.97;;;;;;;8.97;91.17;98880.88;4244862;27;20628;-85
2022/09/21 00:11:28;;;;;;;10.17;4.87;;;;;;;8.95;91.31;98880.13;4202054;28;20284;-85
2022/09/21 00:13:31;;;;;;;6.90;4.50;;;;;;;8.89;90.10;98882.19;4203647;28;21122;-85
2022/09/21 00:15:35;;;;;;;6.90;5.43;;;;;;;8.85;89.51;98883.25;4222974;28;20711;-85
2022/09/21 00:17:38;;;;;;;6.95;4.65;;;;;;;8.85;90.08;98889.28;4221071;28;20325;-85
2022/09/21 00:19:41;;;;;;;7.05;5.40;;;;;;;8.85;91.65;98888.44;4206541;28;20231;-85
2022/09/21 00:21:44;;;;;;;7.10;4.63;;;;;;;8.88;91.49;98886.53;4206818;28;20358;-85
2022/09/21 00:23:47;;;;;;;8.15;4.45;;;;;;;8.90;92.13;98889.06;4206723;28;20244;-85
2022/09/21 00:25:50;;;;;;;6.85;5.00;;;;;;;8.91;92.29;98885.53;4224394;27;20232;-85
2022/09/21 00:27:55;;;;;;;7.93;5.03;;;;;;;8.94;92.54;98889.69;4204783;28;20228;-85
2022/09/21 00:29:59;;;;;;;8.65;4.95;;;;;;;8.94;91.80;98886.22;4253029;27;20280;-85
2022/09/21 00:32:02;;;;;;;7.18;5.28;;;;;;;8.91;92.22;98888.16;4222342;28;20255;-85
2022/09/21 00:34:06;;;;;;;5.78;4.38;;;;;;;8.86;91.57;98890.16;4205266;28;20232;-85
2022/09/21 00:36:11;;;;;;;5.68;4.47;;;;;;;8.81;90.93;98884.28;4223585;28;20226;-85
2022/09/21 00:38:14;;;;;;;8.63;4.55;;;;;;;8.76;90.58;98891.50;4201302;28;20266;-85
2022/09/21 00:40:17;;;;;;;5.00;4.50;;;;;;;8.67;89.26;98891.94;4219483;28;20713;-85
2022/09/21 00:42:22;;;;;;;5.30;4.63;;;;;;;8.58;89.19;98889.78;4220704;28;20212;-84
2022/09/21 00:44:33;;;;;;;6.32;4.20;;;;;;;8.51;89.32;98888.41;4207973;28;20255;-85
2022/09/21 00:46:37;;;;;;;6.93;4.60;;;;;;;8.46;89.33;98887.75;4223971;28;20218;-85
2022/09/21 00:48:41;;;;;;;6.72;4.57;;;;;;;8.46;88.88;98893.81;4220980;28;20238;-84
2022/09/21 00:50:49;;;;;;;5.88;4.50;;;;;;;8.46;89.69;98887.75;4206368;28;20229;-85
2022/09/21 00:52:54;;;;;;;6.00;4.30;;;;;;;8.45;89.70;98891.28;4207212;28;20312;-85
2022/09/21 00:55:03;;;;;;;5.05;4.30;;;;;;;8.45;90.46;98891.28;4260808;27;20300;-84
2022/09/21 00:57:07;;;;;;;6.65;4.65;;;;;;;8.47;90.86;98886.84;4222259;27;20211;-85
2022/09/21 00:59:12;;;;;;;5.30;4.57;;;;;;;8.49;91.13;98893.66;4207741;28;20252;-85
2022/09/21 01:01:17;;;;;;;10.70;4.55;;;;;;;8.49;92.20;98890.19;4212107;28;20209;-85
2022/09/21 01:03:20;;;;;;;6.68;4.78;;;;;;;8.47;91.12;98894.66;4223640;28;20224;-84
2022/09/21 01:05:23;;;;;;;7.43;4.55;;;;;;;8.42;91.00;98891.44;4226466;27;20278;-85
2022/09/21 01:07:28;;;;;;;4.65;4.03;;;;;;;8.38;91.50;98892.47;4228316;27;20646;-85
2022/09/21 01:09:31;;;;;;;6.32;4.65;;;;;;;8.35;91.84;98890.03;4213535;28;20228;-85
2022/09/21 01:11:41;;;;;;;5.45;4.15;;;;;;;8.34;91.65;98887.50;4225679;27;20219;-84
2022/09/21 01:13:54;;;;;;;6.80;4.10;;;;;;;8.32;91.14;98884.97;4223035;28;20238;-85
2022/09/21 01:16:02;;;;;;;5.10;4.57;;;;;;;8.27;89.81;98878.28;4221114;28;20219;-85
2022/09/21 01:18:13;;;;;;;8.27;3.97;;;;;;;8.25;89.61;98880.13;4220143;27;20341;-84
2022/09/21 01:20:48;;;;;;;5.28;4.07;;;;;;;8.20;89.96;98882.09;4220194;27;20227;-85
2022/09/21 01:23:02;;;;;;;7.40;4.70;;;;;;;8.18;91.24;98876.97;4211941;28;20821;-84
2022/09/21 01:25:12;;;;;;;5.60;3.80;;;;;;;8.19;90.77;98878.63;4223122;28;20275;-85
2022/09/21 01:27:46;;;;;;;4.82;4.32;;;;;;;8.22;90.84;98881.09;4227682;27;20212;-85
2022/09/21 01:29:52;;;;;;;5.72;4.70;;;;;;;8.22;92.51;98881.09;4226943;27;20278;-85
2022/09/21 01:31:59;;;;;;;9.27;4.40;;;;;;;8.22;91.82;98881.09;4223015;27;20604;-85
2022/09/21 01:34:06;;;;;;;6.32;4.20;;;;;;;8.26;92.49;98889.63;4213764;28;20311;-85
2022/09/21 01:36:13;;;;;;;5.75;4.38;;;;;;;8.30;93.20;98893.72;4206772;28;20232;-85
2022/09/21 01:38:19;;;;;;;7.18;5.35;;;;;;;8.30;92.44;98891.13;4221577;28;20223;-85
2022/09/21 01:40:29;;;;;;;6.47;4.68;;;;;;;8.27;92.02;98894.75;4222415;28;20247;-85
2022/09/21 01:42:39;;;;;;;8.45;5.03;;;;;;;8.22;91.57;98891.50;4219686;27;20209;-85
2022/09/21 01:44:43;;;;;;;4.97;3.97;;;;;;;8.19;92.03;98889.03;4219165;28;20305;-84
2022/09/21 01:46:48;;;;;;;5.43;4.30;;;;;;;8.16;90.62;98886.59;4200795;28;20229;-85
2022/09/21 01:48:53;;;;;;;5.82;4.47;;;;;;;8.16;91.26;98884.00;4209553;28;20209;-85
2022/09/21 01:50:58;;;;;;;5.50;5.00;;;;;;;8.16;92.15;98888.34;4205924;28;20266;-85
2022/09/21 01:53:04;;;;;;;6.93;4.80;;;;;;;8.15;91.70;98884.91;4224576;28;20261;-84
2022/09/21 01:55:11;;;;;;;6.03;4.30;;;;;;;8.12;90.45;98892.84;4218680;27;20254;-85
2022/09/21 01:57:19;;;;;;;5.63;4.70;;;;;;;8.06;90.17;98887.06;4219101;27;20203;-85
2022/09/21 01:59:26;;;;;;;9.13;5.10;;;;;;;8.01;90.17;98887.28;4252988;27;20684;-85
2022/09/21 02:01:32;;;;;;;7.35;4.30;;;;;;;7.98;90.37;98889.13;4207999;28;20231;-85
2022/09/21 02:03:38;;;;;;;6.93;4.03;;;;;;;7.97;90.42;98882.28;4239015;27;20239;-84
2022/09/21 02:05:41;;;;;;;6.72;4.00;;;;;;;7.89;90.07;98881.75;4203331;28;20238;-84
2022/09/21 02:07:45;;;;;;;5.20;4.00;;;;;;;7.84;90.82;98886.34;4214257;27;20274;-85
2022/09/21 02:09:48;;;;;;;4.55;3.97;;;;;;;7.79;90.13;98879.69;4217149;28;20259;-84
2022/09/21 02:11:51;;;;;;;7.30;4.00;;;;;;;7.77;91.07;98873.69;4209174;28;20301;-85
2022/09/21 02:13:55;;;;;;;5.55;3.97;;;;;;;7.77;90.27;98876.28;4218703;27;20889;-84
2022/09/21 02:16:05;;;;;;;13.55;5.15;;;;;;;7.81;91.17;98885.63;4224555;28;20227;-85
2022/09/21 02:18:15;;;;;;;7.50;4.70;;;;;;;7.81;91.02;98880.44;4213300;28;20323;-85
2022/09/21 02:20:20;;;;;;;6.82;3.95;;;;;;;7.82;92.41;98887.28;4224273;27;20779;-85
2022/09/21 02:22:31;;;;;;;8.45;5.18;;;;;;;7.83;90.87;98884.63;4235965;27;20250;-85
2022/09/21 02:24:40;;;;;;;7.80;4.72;;;;;;;7.84;90.63;98880.31;4221095;28;20318;-84
2022/09/21 02:26:47;;;;;;;6.80;4.43;;;;;;;7.83;91.40;98878.59;4205074;28;20228;-85
2022/09/21 02:28:53;;;;;;;5.75;4.00;;;;;;;7.80;92.23;98879.56;4229346;27;20211;-85
2022/09/21 02:30:59;;;;;;;6.38;4.35;;;;;;;7.81;91.88;98876.09;4206833;28;20315;-85
2022/09/21 02:33:10;;;;;;;6.78;4.65;;;;;;;7.83;92.22;98882.03;4223242;27;20225;-84
2022/09/21 02:35:16;;;;;;;7.53;4.50;;;;;;;7.84;91.25;98877.72;4208060;28;20321;-85
2022/09/21 02:37:23;;;;;;;7.72;4.15;;;;;;;7.82;91.97;98880.38;4208913;28;20227;-85
2022/09/21 02:39:32;;;;;;;6.38;3.95;;;;;;;7.83;91.18;98873.41;4231929;27;20223;-85
2022/09/21 02:41:40;;;;;;;4.65;3.90;;;;;;;7.80;90.72;98878.75;4207503;28;20691;-85
2022/09/21 02:43:46;;;;;;;4.32;3.75;;;;;;;7.77;90.32;98878.88;4214789;28;20272;-85
2022/09/21 02:45:52;;;;;;;5.60;4.20;;;;;;;7.76;90.55;98890.19;4205384;28;20232;-85
2022/09/21 02:47:59;;;;;;;6.88;4.40;;;;;;;7.73;90.57;98887.75;4212290;28;20231;-85
2022/09/21 02:50:05;;;;;;;5.82;4.15;;;;;;;7.72;90.79;98886.03;4200385;28;20307;-84
2022/09/21 02:52:11;;;;;;;8.35;3.88;;;;;;;7.74;91.73;98884.22;4238722;27;20782;-84
2022/09/21 02:54:17;;;;;;;5.60;3.85;;;;;;;7.76;92.03;98885.00;4204099;28;20226;-84
2022/09/21 02:56:21;;;;;;;6.75;4.70;;;;;;;7.76;91.59;98885.84;4205007;28;20248;-85
2022/09/21 02:58:26;;;;;;;6.35;4.78;;;;;;;7.74;90.63;98879.00;4230288;27;20694;-84
2022/09/21 03:00:29;;;;;;;12.20;4.60;;;;;;;7.70;90.96;98886.09;4222089;28;20232;-85
2022/09/21 03:02:36;;;;;;;5.63;4.30;;;;;;;7.66;90.10;98892.34;4198039;28;20304;-84
2022/09/21 03:04:40;;;;;;;5.50;4.20;;;;;;;7.63;90.53;98891.63;4220610;28;20211;-84
2022/09/21 03:06:43;;;;;;;6.43;3.90;;;;;;;7.61;90.64;98893.47;4223065;27;20234;-85
2022/09/21 03:08:46;;;;;;;5.05;4.45;;;;;;;7.57;90.82;98886.72;4237930;27;20815;-85
2022/09/21 03:10:51;;;;;;;6.40;4.10;;;;;;;7.55;90.35;98883.34;4206053;28;20251;-84
2022/09/21 03:12:58;;;;;;;10.98;4.18;;;;;;;7.56;91.72;98891.06;4224736;27;20224;-84
2022/09/21 03:15:01;;;;;;;6.03;4.30;;;;;;;7.58;91.02;98888.41;4209425;28;20247;-85
2022/09/21 03:17:04;;;;;;;8.50;4.28;;;;;;;7.56;90.87;98891.06;4206019;28;20305;-85
2022/09/21 03:19:07;;;;;;;7.38;4.80;;;;;;;7.54;92.02;98881.66;4226806;28;20323;-85
2022/09/21 03:21:11;;;;;;;6.45;4.55;;;;;;;7.54;91.52;98892.03;4231235;27;20254;-85
2022/09/21 03:23:14;;;;;;;6.90;4.85;;;;;;;7.52;90.37;98894.69;4220760;27;20274;-84
2022/09/21 03:25:17;;;;;;;7.55;4.18;;;;;;;7.51;90.92;98892.16;4235097;27;20212;-84
2022/09/21 03:27:21;;;;;;;6.90;4.43;;;;;;;7.48;90.73;98893.13;4217913;28;20255;-85
2022/09/21 03:29:24;;;;;;;7.55;4.50;;;;;;;7.48;91.92;98892.31;4218478;27;20215;-84
2022/09/21 03:31:27;;;;;;;5.85;5.10;;;;;;;7.47;91.58;98890.59;4205828;28;20213;-84
2022/09/21 03:33:30;;;;;;;11.10;4.68;;;;;;;7.47;91.35;98888.00;4219211;28;20234;-85
2022/09/21 03:35:34;;;;;;;6.25;4.20;;;;;;;7.47;91.49;98897.56;4239149;27;20302;-84
2022/09/21 03:37:37;;;;;;;6.03;4.85;;;;;;;7.49;92.76;98902.63;4207307;28;20224;-85
2022/09/21 03:39:46;;;;;;;6.00;4.30;;;;;;;7.49;91.27;98904.38;4218868;28;20715;-84
2022/09/21 03:41:49;;;;;;;5.80;4.38;;;;;;;7.47;90.78;98906.19;4220226;28;20262;-85
2022/09/21 03:43:53;;;;;;;6.55;4.65;;;;;;;7.44;91.68;98908.06;4226608;27;20223;-85
2022/09/21 03:45:59;;;;;;;6.90;5.50;;;;;;;7.44;91.11;98903.72;4218307;27;20710;-84
2022/09/21 03:48:03;;;;;;;7.97;4.85;;;;;;;7.43;91.93;98907.22;4203944;28;20219;-84
2022/09/21 03:50:07;;;;;;;13.95;5.35;;;;;;;7.46;92.60;98912.28;4223119;27;20604;-84
2022/09/21 03:52:12;;;;;;;7.03;4.57;;;;;;;7.46;91.71;98904.50;4211633;28;20251;-85
2022/09/21 03:54:15;;;;;;;9.63;4.78;;;;;;;7.40;90.63;98904.78;4220815;28;20211;-84
2022/09/21 03:56:18;;;;;;;10.52;5.15;;;;;;;7.35;91.77;98906.72;4235746;27;20215;-85
2022/09/21 03:58:21;;;;;;;11.77;5.00;;;;;;;7.32;90.72;98906.84;4211063;28;20240;-85
2022/09/21 04:00:25;;;;;;;8.48;4.95;;;;;;;7.30;90.47;98908.66;4221709;27;20223;-84
2022/09/21 04:02:28;;;;;;;10.82;5.20;;;;;;;7.26;91.48;98901.94;4237348;27;20219;-85
2022/09/21 04:04:31;;;;;;;8.95;4.78;;;;;;;7.23;91.50;98907.25;4216547;28;20794;-85
2022/09/21 04:06:35;;;;;;;7.45;5.10;;;;;;;7.21;91.45;98903.00;4221672;28;20234;-84
2022/09/21 04:08:38;;;;;;;16.02;5.45;;;;;;;7.18;91.81;98903.97;4205854;28;20224;-84
2022/09/21 04:10:42;;;;;;;22.17;6.68;;;;;;;7.14;91.25;98901.56;4206755;28;20217;-85
2022/09/21 04:12:45;;;;;;;32.00;7.63;;;;;;;7.11;91.71;98899.09;4222834;28;20244;-85
2022/09/21 04:14:49;;;;;;;25.55;6.38;;;;;;;7.06;92.05;98896.72;4215837;27;20223;-85
2022/09/21 04:16:53;;;;;;;35.42;6.97;;;;;;;7.06;91.77;98898.47;4219335;28;20221;-84
2022/09/21 04:18:56;;;;;;;31.77;7.85;;;;;;;7.09;93.03;98896.56;4204377;28;20240;-85
2022/09/21 04:20:59;;;;;;;15.68;5.63;;;;;;;7.07;92.97;98897.56;4206687;28;20228;-85
2022/09/21 04:23:02;;;;;;;33.00;6.63;;;;;;;7.06;91.93;98899.31;4218422;28;20299;-85
2022/09/21 04:25:06;;;;;;;53.20;9.15;;;;;;;7.08;93.22;98899.22;4209208;28;20235;-85
2022/09/21 04:27:10;;;;;;;42.85;8.30;;;;;;;7.10;92.45;98895.69;4211941;28;20283;-85
2022/09/21 04:29:13;;;;;;;54.25;8.60;;;;;;;7.11;92.61;98904.28;4207236;28;20258;-85
2022/09/21 04:31:16;;;;;;;37.40;8.05;;;;;;;7.08;93.53;98901.81;4247324;27;20221;-85
2022/09/21 04:33:21;;;;;;;24.05;5.07;;;;;;;7.06;93.36;98898.47;4244854;27;20273;-87
2022/09/21 04:35:24;;;;;;;26.55;8.38;;;;;;;7.03;93.21;98907.22;4221761;28;20311;-87
2022/09/21 04:37:27;;;;;;;19.75;5.45;;;;;;;7.03;93.59;98902.94;4207324;28;20251;-87
2022/09/21 04:39:30;;;;;;;19.23;5.43;;;;;;;6.98;92.57;98904.91;4221046;28;20212;-86
2022/09/21 04:41:33;;;;;;;21.77;5.00;;;;;;;6.96;93.10;98907.56;4220907;28;20569;-87
2022/09/21 04:43:36;;;;;;;24.48;5.43;;;;;;;6.95;93.47;98910.22;4208667;28;20705;-86
2022/09/21 04:45:39;;;;;;;19.02;5.90;;;;;;;6.95;94.16;98912.78;4204176;28;20224;-86
2022/09/21 04:47:42;;;;;;;5.95;4.03;;;;;;;6.97;93.00;98910.97;4223284;28;20250;-87
2022/09/21 04:49:46;;;;;;;6.57;3.83;;;;;;;6.99;93.13;98916.94;4215304;28;20251;-86
2022/09/21 04:51:50;;;;;;;11.25;5.40;;;;;;;6.99;93.67;98919.53;4207517;28;20708;-86
2022/09/21 04:53:53;;;;;;;12.38;5.47;;;;;;;7.00;93.48;98923.81;4228827;27;20317;-86
2022/09/21 04:55:56;;;;;;;21.25;6.75;;;;;;;7.01;92.94;98922.91;4215571;28;20221;-86
2022/09/21 04:57:59;;;;;;;34.40;7.68;;;;;;;7.01;93.82;98920.31;4218803;28;20247;-87
2022/09/21 05:00:03;;;;;;;31.83;6.97;;;;;;;7.00;93.56;98926.41;4209963;28;20220;-86
2022/09/21 05:02:06;;;;;;;27.63;6.22;;;;;;;7.00;93.72;98929.00;4205925;28;20251;-86
2022/09/21 05:04:09;;;;;;;22.33;6.90;;;;;;;6.99;93.40;98935.09;4229928;28;20261;-87
2022/09/21 05:06:13;;;;;;;42.83;7.47;;;;;;;6.97;93.73;98935.16;4210486;28;20238;-86
2022/09/21 05:10:01;;;;;;;23.77;5.75;;;;;;;6.96;94.01;98938.66;4200674;28;20243;-86
2022/09/21 05:10:39;;;;;;;41.60;7.75;;;;;;;6.94;93.66;98940.44;4204188;28;20218;-87
2022/09/21 05:12:42;;;;;;;34.70;6.22;;;;;;;6.92;93.65;98946.63;4213510;28;20240;-87
2022/09/21 05:14:45;;;;;;;32.85;11.48;;;;;;;6.88;93.31;98940.69;4210611;28;20252;-87
2022/09/21 05:16:49;;;;;;;31.83;15.25;;;;;;;6.87;92.89;98945.94;4221016;28;20694;-86
2022/09/21 05:18:53;;;;;;;77.57;39.17;;;;;;;6.86;93.40;98942.53;4246495;27;20320;-86
2022/09/21 05:20:57;;;;;;;40.42;7.80;;;;;;;6.85;94.19;98943.41;4218325;28;20253;-87
2022/09/21 05:23:02;;;;;;;24.25;6.30;;;;;;;6.83;93.95;98945.22;4224374;28;20973;-87
2022/09/21 05:25:06;;;;;;;23.33;7.10;;;;;;;6.83;93.61;98947.00;4205629;28;20226;-86
2022/09/21 05:27:09;;;;;;;29.00;8.32;;;;;;;6.83;94.27;98952.19;4230327;27;20242;-87
2022/09/21 05:29:12;;;;;;;65.43;14.95;;;;;;;6.84;94.69;98941.75;4215815;28;20305;-86
2022/09/21 05:31:38;;;;;;;49.63;13.52;;;;;;;6.82;93.60;98947.88;4214731;28;20688;-87
2022/09/21 05:33:44;;;;;;;41.63;7.88;;;;;;;6.82;94.98;98948.72;4232551;27;20794;-87
2022/09/21 05:35:58;;;;;;;57.03;10.80;;;;;;;6.84;94.39;98951.25;4206723;28;20728;-87
2022/09/21 05:38:07;;;;;;;66.10;11.18;;;;;;;6.84;94.44;98953.84;4199917;28;20203;-86
2022/09/21 05:40:12;;;;;;;67.28;10.45;;;;;;;6.85;94.75;98945.16;4234625;27;20299;-87
2022/09/21 05:42:15;;;;;;;49.83;7.35;;;;;;;6.87;94.37;98951.13;4234353;27;20265;-86
2022/09/21 05:44:20;;;;;;;33.88;6.80;;;;;;;6.90;94.80;98961.38;4219357;28;20246;-86
2022/09/21 05:46:33;;;;;;;37.13;7.25;;;;;;;6.95;94.49;98962.91;4215780;27;20221;-87
2022/09/21 05:48:39;;;;;;;33.30;6.70;;;;;;;7.03;95.70;98965.19;4223626;28;20604;-86
2022/09/21 05:50:49;;;;;;;39.05;8.50;;;;;;;7.09;95.17;98966.59;4208558;28;20224;-88
2022/09/21 05:53:04;;;;;;;47.17;8.27;;;;;;;7.16;95.44;98972.41;4204990;28;20567;-88
2022/09/21 05:55:12;;;;;;;56.08;9.73;;;;;;;7.23;94.31;98966.91;4221520;28;20216;-87
2022/09/21 05:57:19;;;;;;;33.63;7.72;;;;;;;7.26;95.21;98973.69;4219820;28;20282;-88
2022/09/21 05:59:39;;;;;;;32.47;6.78;;;;;;;7.30;94.48;98980.47;4202330;28;20257;-88
2022/09/21 06:01:54;;;;;;;51.20;7.95;;;;;;;7.31;94.21;98983.00;4257709;27;20308;-88
2022/09/21 06:03:58;;;;;;;11.75;5.22;;;;;;;7.35;94.23;98981.97;4218082;27;20218;-87
2022/09/21 06:06:01;;;;;;;15.50;5.80;;;;;;;7.45;94.44;98985.00;4232733;27;20674;-87
2022/09/21 06:08:06;;;;;;;18.60;6.90;;;;;;;7.54;95.68;98990.66;4227323;27;20214;-87
2022/09/21 06:10:10;;;;;;;16.13;5.25;;;;;;;7.65;95.04;98991.03;4226522;27;20233;-87
2022/09/21 06:12:13;;;;;;;9.63;4.80;;;;;;;7.75;94.93;98989.75;4211345;28;20218;-88
2022/09/21 06:14:23;;;;;;;6.05;4.13;;;;;;;7.86;93.27;98988.38;4222166;27;20216;-87
2022/09/21 06:16:26;;;;;;;18.55;9.10;;;;;;;8.00;92.64;98983.44;4211210;28;20206;-86
2022/09/21 06:18:29;;;;;;;17.42;8.70;;;;;;;8.11;92.76;98989.84;4225546;27;20203;-86
2022/09/21 06:20:32;;;;;;;18.42;8.35;;;;;;;8.22;91.02;98985.03;4192629;28;20226;-87
2022/09/21 06:22:35;;;;;;;12.43;7.97;;;;;;;8.31;91.32;98992.41;4204635;28;20232;-87
2022/09/21 06:24:40;;;;;;;13.00;9.07;;;;;;;8.40;92.59;98992.00;4219090;28;20255;-88
2022/09/21 06:26:42;;;;;;;8.43;5.75;;;;;;;8.49;92.39;98994.19;4221034;28;20273;-88
2022/09/21 06:28:45;;;;;;;9.20;5.75;;;;;;;8.63;91.72;98999.56;4225911;27;20675;-88
2022/09/21 06:30:50;;;;;;;7.18;4.90;;;;;;;8.80;90.90;98987.50;4204774;28;20725;-87
2022/09/21 06:32:53;;;;;;;5.63;4.80;;;;;;;8.98;91.94;98997.88;4225142;28;20231;-85
2022/09/21 06:34:56;;;;;;;6.40;4.85;;;;;;;9.14;91.13;98998.84;4221193;28;20223;-86
2022/09/21 06:36:59;;;;;;;6.10;4.97;;;;;;;9.36;90.12;99006.44;4223623;28;20239;-85
2022/09/21 06:39:02;;;;;;;6.32;4.63;;;;;;;9.66;91.35;99005.75;4219079;28;20214;-86
2022/09/21 06:41:07;;;;;;;7.00;5.50;;;;;;;9.86;89.20;99009.91;4205971;28;20283;-86
2022/09/21 06:43:10;;;;;;;9.57;5.20;;;;;;;10.10;88.85;99010.41;4214136;28;20274;-86
2022/09/21 06:45:13;;;;;;;10.23;5.20;;;;;;;10.28;87.43;99012.91;4210790;28;20220;-86
2022/09/21 06:47:16;;;;;;;7.30;5.60;;;;;;;10.36;87.17;99010.75;4217624;28;20307;-86
2022/09/21 06:49:19;;;;;;;5.72;5.13;;;;;;;10.44;86.69;99011.19;4209219;28;20232;-87
2022/09/21 06:51:23;;;;;;;6.75;5.70;;;;;;;10.57;86.85;99009.59;4225904;27;20332;-87
2022/09/21 06:53:26;;;;;;;6.20;5.18;;;;;;;10.75;86.41;99016.44;4241845;27;20261;-87
2022/09/21 06:55:29;;;;;;;7.20;5.80;;;;;;;10.96;86.46;99010.88;4208263;28;20218;-86
2022/09/21 06:57:33;;;;;;;6.00;5.25;;;;;;;11.10;85.84;99010.97;4206488;28;20642;-86
2022/09/21 06:59:36;;;;;;;6.10;5.07;;;;;;;11.31;87.71;99014.06;4212628;28;20278;-86
2022/09/21 07:01:40;;;;;;;6.70;5.20;;;;;;;11.40;85.61;99010.91;4212249;27;20749;-86
2022/09/21 07:06:26;;;;;;;6.53;5.00;;;;;;;11.82;85.29;99019.78;4168064;28;20775;-82
2022/09/21 07:08:29;;;;;;;7.30;5.40;;;;;;;12.04;85.74;99020.22;4158512;28;20660;-82
2022/09/21 07:10:52;;;;;;;7.20;5.20;;;;;;;12.14;84.24;99017.88;4176819;28;20727;-82
2022/09/21 07:12:56;;;;;;;6.20;4.60;;;;;;;12.23;83.67;99018.16;4178450;28;20652;-83
2022/09/21 07:14:59;;;;;;;6.07;5.00;;;;;;;12.40;84.24;99017.97;4188632;28;20675;-82
2022/09/21 07:17:02;;;;;;;5.07;4.40;;;;;;;12.55;81.97;99011.81;4173659;28;20648;-82
2022/09/21 07:19:05;;;;;;;6.37;5.23;;;;;;;12.64;81.73;99017.31;4177025;28;20670;-83
2022/09/21 07:21:16;;;;;;;7.53;5.60;;;;;;;12.77;81.56;99016.47;4187737;28;20693;-82
2022/09/21 07:23:21;;;;;;;6.77;5.47;;;;;;;12.86;82.00;99015.91;4177035;28;20644;-82
2022/09/21 07:25:24;;;;;;;8.70;7.80;;;;;;;13.00;81.80;99017.69;4191938;28;20700;-83
2022/09/21 07:27:29;;;;;;;7.60;6.80;;;;;;;13.10;81.82;99018.78;4192343;28;20713;-82
2022/09/21 07:29:33;;;;;;;9.87;6.20;;;;;;;13.19;80.40;99016.41;4176122;28;20774;-82
2022/09/21 07:31:36;;;;;;;8.93;5.43;;;;;;;13.24;80.86;99016.94;4175924;28;21234;-82
2022/09/21 07:33:39;;;;;;;7.17;5.70;;;;;;;13.40;81.14;99026.34;4175637;28;21260;-82
2022/09/21 07:35:50;;;;;;;6.40;5.43;;;;;;;13.58;82.24;99021.72;4177702;28;20652;-82
2022/09/21 07:37:55;;;;;;;6.23;5.30;;;;;;;13.79;80.69;99031.63;4194526;28;20678;-82
2022/09/21 07:39:58;;;;;;;5.73;4.93;;;;;;;13.94;81.80;99036.69;4175976;28;21018;-82
2022/09/21 07:42:01;;;;;;;8.53;5.90;;;;;;;14.06;80.26;99038.53;4172330;28;20660;-82
2022/09/21 07:44:04;;;;;;;5.77;5.03;;;;;;;14.18;80.34;99032.44;4175362;28;20685;-83
2022/09/21 07:46:10;;;;;;;6.27;4.87;;;;;;;14.23;80.26;99035.59;4193496;28;21441;-82
2022/09/21 07:48:13;;;;;;;6.90;5.50;;;;;;;14.43;81.10;99033.28;4192180;28;20660;-82
2022/09/21 07:50:16;;;;;;;6.13;4.70;;;;;;;14.54;81.84;99033.41;4178389;28;20748;-82
2022/09/21 07:52:20;;;;;;;5.80;4.80;;;;;;;14.60;78.53;99027.72;4181500;28;20652;-82
2022/09/21 07:54:23;;;;;;;8.03;5.30;;;;;;;14.72;78.43;99027.69;4175535;28;20750;-82
2022/09/21 07:56:26;;;;;;;7.27;5.13;;;;;;;14.73;78.83;99026.75;4171069;28;20636;-82
2022/09/21 08:00:55;;;;;;;6.40;5.07;;;;;;;15.11;78.04;99030.97;4155347;28;20730;-82
2022/09/21 08:03:00;;;;;;;8.53;5.10;;;;;;;15.23;80.85;99034.53;4176154;28;20668;-83
2022/09/21 08:05:03;;;;;;;7.60;5.10;;;;;;;15.41;78.96;99034.06;4176687;28;20673;-81
2022/09/21 08:07:07;;;;;;;6.83;4.57;;;;;;;15.46;77.06;99036.38;4180709;28;21102;-81
2022/09/21 08:09:10;;;;;;;4.80;4.30;;;;;;;15.58;77.67;99037.13;4174028;28;20694;-81
2022/09/21 08:11:13;;;;;;;6.60;4.47;;;;;;;15.64;77.57;99039.31;4178637;28;20682;-82
2022/09/21 08:13:16;;;;;;;5.80;4.47;;;;;;;15.74;78.00;99042.09;4157644;28;20753;-82
2022/09/21 08:15:19;;;;;;;5.47;4.70;;;;;;;15.91;77.88;99039.09;4175345;28;20655;-82
2022/09/21 08:17:42;;;;;;;5.03;4.53;;;;;;;16.02;76.53;99043.41;4173071;28;20669;-83
2022/09/21 08:19:46;;;;;;;6.50;5.13;;;;;;;16.12;77.33;99039.13;4156292;28;20738;-81
2022/09/21 08:21:50;;;;;;;5.60;4.20;;;;;;;16.26;77.72;99046.03;4174826;28;20659;-80
2022/09/21 08:23:59;;;;;;;4.57;4.17;;;;;;;16.44;80.06;99042.00;4173579;28;20650;-81
2022/09/21 08:26:04;;;;;;;5.17;4.23;;;;;;;16.50;75.91;99038.91;4161232;28;20643;-81
2022/09/21 08:28:07;;;;;;;7.63;4.07;;;;;;;16.55;75.66;99038.44;4154744;28;20758;-80
2022/09/21 08:30:12;;;;;;;5.20;4.07;;;;;;;16.62;76.68;99034.34;4159275;28;20674;-80
2022/09/21 08:32:15;;;;;;;4.53;4.13;;;;;;;16.77;78.08;99040.22;4165131;28;20723;-81
2022/09/21 08:34:38;;;;;;;5.50;4.47;;;;;;;16.94;80.67;99039.75;4173889;28;20692;-81
2022/09/21 08:36:42;;;;;;;4.83;3.50;;;;;;;17.04;77.67;99039.72;4192967;28;21003;-80
2022/09/21 08:38:46;;;;;;;6.27;3.83;;;;;;;17.14;76.75;99042.50;4177929;28;20655;-81
2022/09/21 08:40:50;;;;;;;5.77;3.67;;;;;;;17.25;75.42;99040.69;4184459;28;20679;-81
2022/09/21 08:42:58;;;;;;;5.43;3.27;;;;;;;17.35;73.95;99040.78;4180511;28;21009;-81
2022/09/21 08:45:05;;;;;;;5.20;3.47;;;;;;;17.29;73.16;99042.13;4178219;28;20668;-81
2022/09/21 08:47:12;;;;;;;4.53;3.00;;;;;;;17.21;71.81;99036.63;4182267;28;20691;-81
2022/09/21 08:49:17;;;;;;;3.70;3.00;;;;;;;17.20;72.04;99034.06;4183078;28;20645;-81
2022/09/21 08:51:22;;;;;;;3.33;2.30;;;;;;;17.16;69.52;99032.66;4186360;28;20640;-80
2022/09/21 08:53:31;;;;;;;4.40;2.40;;;;;;;17.24;71.34;99032.91;4178839;28;20690;-81
2022/09/21 08:55:34;;;;;;;2.90;1.30;;;;;;;17.42;67.25;99034.06;4172935;28;20646;-80
2022/09/21 08:57:37;;;;;;;1.97;0.90;;;;;;;17.45;66.42;99025.91;4177823;28;20673;-79
2022/09/21 08:59:42;;;;;;;2.07;0.90;;;;;;;17.48;66.47;99022.06;4177842;28;20660;-81
2022/09/21 09:01:54;;;;;;;2.87;1.30;;;;;;;17.60;65.35;99023.69;4173477;28;21123;-80
2022/09/21 09:04:15;;;;;;;3.77;1.00;;;;;;;17.77;66.08;99017.91;4164169;28;20653;-81
2022/09/21 09:06:24;;;;;;;2.87;1.00;;;;;;;17.97;64.78;99027.63;4192084;28;20763;-81
2022/09/21 09:08:53;;;;;;;2.30;1.10;;;;;;;17.93;63.97;99020.91;4192786;28;20638;-80
2022/09/21 09:11:05;;;;;;;2.20;0.70;;;;;;;17.93;63.51;99026.19;4159900;28;20938;-80
2022/09/21 09:13:26;;;;;;;2.00;0.80;;;;;;;17.95;62.97;99019.84;4175439;28;20640;-81
2022/09/21 09:15:38;;;;;;;1.90;0.80;;;;;;;17.96;63.46;99018.03;4185330;28;20658;-81
2022/09/21 09:17:49;;;;;;;1.70;0.73;;;;;;;18.02;63.95;99018.34;4161704;28;21104;-81
2022/09/21 09:19:56;;;;;;;1.93;0.90;;;;;;;18.17;63.43;99011.00;4190873;28;20652;-81
2022/09/21 09:22:02;;;;;;;4.10;1.20;;;;;;;18.03;61.88;99011.28;4185748;28;20754;-81
2022/09/21 09:24:10;;;;;;;2.87;0.93;;;;;;;17.92;62.99;99003.44;4177087;28;21027;-81
2022/09/21 09:26:18;;;;;;;1.97;1.10;;;;;;;18.04;63.16;99005.00;4183462;28;20640;-81
2022/09/21 09:28:27;;;;;;;3.20;1.03;;;;;;;18.18;63.19;99002.13;4162407;28;20668;-81
2022/09/21 09:30:33;;;;;;;2.00;1.03;;;;;;;18.36;63.32;99006.66;4176422;28;20690;-82
2022/09/21 09:32:41;;;;;;;2.00;1.10;;;;;;;18.37;62.79;98995.13;4176576;28;20758;-81
2022/09/21 09:34:49;;;;;;;2.73;1.57;;;;;;;18.41;62.70;98999.19;4184210;28;20672;-82
2022/09/21 09:36:58;;;;;;;4.07;1.17;;;;;;;18.53;64.34;99006.06;4184320;28;20720;-82
2022/09/21 09:39:04;;;;;;;3.07;1.10;;;;;;;18.45;60.69;98996.16;4196172;28;20620;-81
2022/09/21 09:41:33;;;;;;;2.07;0.90;;;;;;;18.24;62.45;98996.31;4167990;28;20697;-82
2022/09/21 09:43:46;;;;;;;2.00;1.10;;;;;;;18.26;63.50;98994.38;4170926;28;20687;-82
2022/09/21 09:45:57;;;;;;;2.67;1.00;;;;;;;18.14;62.45;98987.47;4188940;28;20711;-81
2022/09/21 09:48:09;;;;;;;3.10;1.10;;;;;;;18.09;61.19;98987.00;4159629;28;20783;-84
2022/09/21 09:50:20;;;;;;;2.50;1.17;;;;;;;18.03;62.36;98998.09;4188102;28;20805;-82
2022/09/21 09:52:23;;;;;;;2.97;1.03;;;;;;;18.20;63.76;99000.16;4189736;28;20663;-80
2022/09/21 09:54:27;;;;;;;3.30;1.40;;;;;;;18.18;63.41;98986.25;4180701;28;20631;-81
2022/09/21 09:56:32;;;;;;;1.87;1.20;;;;;;;17.95;62.73;98992.59;4180678;28;20656;-80
2022/09/21 09:58:41;;;;;;;18.80;12.33;;;;;;;17.85;64.29;98983.78;4181887;28;20641;-81
2022/09/21 10:00:46;;;;;;;2.10;1.20;;;;;;;17.85;63.20;98989.06;4177165;28;20658;-81